Terminal Aerodrome Forecast
Issued by NWS

Home | Current Version | Previous Version | Text Only | Print | Product List | Glossary On
Versions: 1 2 3 4 5 6 7 8 9 10 11 12 13 14 15 16 17 18 19 20 21 22 23 24 25 26 27 28 29 30 31 32 33 34 35 36 37 38
860
FTUS44 KHGX 301720
TAFCXO
TAF
KCXO 301720Z 3018/3118 17013KT P6SM BKN100
     FM302200 15006KT P6SM SCT045 SCT150
     FM310100 VRB03KT P6SM FEW025 SCT250
     FM310600 00000KT 4SM BR FEW015 BKN250
      TEMPO 3108/3112 1SM BR OVC006
     FM311500 16005KT P6SM SCT030=

USA.gov is the U.S. government's official web portal to all federal, state and local government web resources and services.